Time;durP1;ratioP1;P1;durP2;ratioP2;P2;SDS_P1;SDS_P2;PMS_P1;PMS_P2;Temp;Humidity;BMP_temperature;BMP_pressure;BME280_temperature;BME280_humidity;BME280_pressure;Samples;Min_cycle;Max_cycle;Signal;HPM_P1;HPM_P2
2021/12/15 00:00:31;;;;;;;34.72;11.63;;;;;;;8.82;95.74;103004.34;4973362;28;101099;-34
2021/12/15 00:02:57;;;;;;;23.65;10.07;;;;;;;8.86;95.47;103018.66;4974781;28;96513;-34
2021/12/15 00:05:25;;;;;;;25.13;9.52;;;;;;;8.85;95.55;103011.47;4972328;28;96888;-34
2021/12/15 00:07:54;;;;;;;26.52;10.73;;;;;;;8.84;95.55;103001.56;4972357;28;101549;-34
2021/12/15 00:10:21;;;;;;;28.23;10.93;;;;;;;8.79;95.61;103003.47;4974148;28;99717;-34
2021/12/15 00:12:47;;;;;;;33.45;11.98;;;;;;;8.81;95.47;103005.22;4974403;28;96926;-34
2021/12/15 00:15:13;;;;;;;27.00;11.00;;;;;;;8.77;95.51;102991.81;4972811;28;96988;-34
2021/12/15 00:17:39;;;;;;;28.17;11.60;;;;;;;8.75;95.47;102994.56;4974333;28;97891;-34
2021/12/15 00:20:09;;;;;;;33.95;12.30;;;;;;;8.79;95.57;103006.19;4974129;28;97900;-34
2021/12/15 00:22:35;;;;;;;26.60;10.52;;;;;;;8.81;95.65;102998.94;4972602;28;97817;-34
2021/12/15 00:25:02;;;;;;;21.98;8.35;;;;;;;8.77;95.39;102998.13;4973197;28;96686;-34
2021/12/15 00:27:27;;;;;;;24.90;10.52;;;;;;;8.81;95.44;102996.25;4974069;28;97942;-34
2021/12/15 00:29:53;;;;;;;27.15;10.68;;;;;;;8.83;95.50;103007.91;4973754;28;99258;-34
2021/12/15 00:32:18;;;;;;;22.52;10.48;;;;;;;8.76;95.56;102988.22;4973323;28;107220;-34
2021/12/15 00:34:45;;;;;;;23.67;9.80;;;;;;;8.76;95.68;102990.03;4973842;28;97346;-34
2021/12/15 00:37:10;;;;;;;34.67;10.50;;;;;;;8.74;95.71;102983.78;4972543;28;98015;-34
2021/12/15 00:39:36;;;;;;;23.13;10.35;;;;;;;8.76;95.48;102992.75;4973919;28;97885;-34
2021/12/15 00:42:02;;;;;;;35.97;11.27;;;;;;;8.73;95.42;102982.88;4974046;28;96654;-34
2021/12/15 00:44:27;;;;;;;31.92;10.98;;;;;;;8.78;95.51;102994.50;4973925;28;96565;-34
2021/12/15 00:46:53;;;;;;;24.20;9.95;;;;;;;8.72;95.87;102989.19;4973878;28;97540;-34
2021/12/15 00:49:21;;;;;;;26.70;9.73;;;;;;;8.78;95.51;102997.19;4973982;28;99209;-34
2021/12/15 00:51:46;;;;;;;24.42;9.15;;;;;;;8.78;95.58;103004.41;4973615;28;96628;-34
2021/12/15 00:54:13;;;;;;;25.38;11.15;;;;;;;8.73;95.58;102985.59;4973583;28;96748;-34
2021/12/15 00:56:38;;;;;;;36.70;13.45;;;;;;;8.73;95.64;102995.50;4971611;28;100776;-34
2021/12/15 00:59:05;;;;;;;27.85;10.20;;;;;;;8.75;95.59;102990.94;4973517;28;99436;-34
2021/12/15 01:01:31;;;;;;;19.77;10.18;;;;;;;8.77;95.49;102997.22;4972120;28;96570;-34
2021/12/15 01:03:57;;;;;;;31.45;10.43;;;;;;;8.77;95.15;103003.53;4972144;28;96873;-34
2021/12/15 01:06:23;;;;;;;28.77;11.27;;;;;;;8.76;95.68;102995.44;4972563;28;97907;-34
2021/12/15 01:08:56;;;;;;;38.65;13.93;;;;;;;8.72;95.54;102997.28;4973462;28;97845;-34
2021/12/15 01:19:53;;;;;;;28.88;11.18;;;;;;;8.71;95.46;102990.13;4973768;28;97114;-34
2021/12/15 01:22:43;;;;;;;34.45;11.55;;;;;;;8.76;95.49;103008.97;4972949;28;96664;-34
2021/12/15 01:25:23;;;;;;;29.45;10.13;;;;;;;8.73;95.46;103000.91;4971755;28;97078;-34
2021/12/15 01:27:51;;;;;;;20.23;9.52;;;;;;;8.78;95.35;103010.72;4971828;28;101216;-34
2021/12/15 01:30:21;;;;;;;27.85;11.57;;;;;;;8.77;95.67;102999.91;4971692;28;100531;-34
2021/12/15 01:32:47;;;;;;;29.35;11.02;;;;;;;8.77;95.29;103010.72;4971814;28;96712;-34
2021/12/15 01:35:13;;;;;;;19.00;9.38;;;;;;;8.71;95.22;103001.81;4971286;28;96592;-34
2021/12/15 01:37:39;;;;;;;24.88;9.93;;;;;;;8.67;95.63;102997.38;4972631;28;98880;-34
2021/12/15 01:40:09;;;;;;;29.98;12.23;;;;;;;8.70;95.43;102991.06;4973233;28;97941;-34
2021/12/15 01:42:35;;;;;;;18.35;7.43;;;;;;;8.73;95.68;103001.81;4972923;28;96613;-34
2021/12/15 01:47:45;;;;;;;29.17;10.55;;;;;;;8.70;95.57;103010.84;4972013;28;97008;-34
2021/12/15 01:50:12;;;;;;;15.80;6.90;;;;;;;8.74;95.67;103014.38;4972834;28;97919;-34
2021/12/15 01:52:41;;;;;;;20.63;8.63;;;;;;;8.76;95.48;103025.16;4971443;28;97489;-34
2021/12/15 01:55:18;;;;;;;23.00;9.80;;;;;;;8.75;95.40;103027.00;4971166;28;96912;-34
2021/12/15 01:57:44;;;;;;;18.20;7.32;;;;;;;8.74;95.45;103016.19;4972908;28;97598;-34
2021/12/15 02:00:14;;;;;;;22.50;9.43;;;;;;;8.77;95.45;103025.16;4973034;28;97331;-34
2021/12/15 02:02:42;;;;;;;20.20;7.88;;;;;;;8.75;95.40;103017.97;4973000;28;96595;-34
2021/12/15 02:05:08;;;;;;;17.95;8.18;;;;;;;8.67;95.60;103018.13;4971015;28;96800;-34
2021/12/15 02:07:34;;;;;;;19.52;9.27;;;;;;;8.71;95.46;103020.72;4972657;28;97555;-34
2021/12/15 02:12:31;;;;;;;22.42;7.63;;;;;;;8.74;95.37;103035.09;4972389;28;96584;-34
2021/12/15 02:14:56;;;;;;;23.92;9.57;;;;;;;8.73;95.29;103036.03;4971145;28;96721;-34
2021/12/15 02:17:22;;;;;;;23.92;8.65;;;;;;;8.65;95.54;103023.56;4972287;28;97852;-34
2021/12/15 02:19:48;;;;;;;24.23;8.13;;;;;;;8.67;95.43;103023.53;4972424;28;97979;-34
2021/12/15 02:22:14;;;;;;;24.88;9.60;;;;;;;8.69;95.32;103022.56;4971195;28;96506;-34
2021/12/15 02:24:41;;;;;;;26.52;10.05;;;;;;;8.75;95.31;103037.78;4971195;28;96923;-34
2021/12/15 02:27:07;;;;;;;28.17;9.77;;;;;;;8.69;95.27;103027.09;4954656;28;100975;-34
2021/12/15 02:29:38;;;;;;;30.23;9.15;;;;;;;8.77;95.26;103043.16;4971120;28;100797;-34
2021/12/15 02:32:16;;;;;;;28.97;9.80;;;;;;;8.76;95.10;103039.56;4971220;28;96607;-34
2021/12/15 02:37:36;;;;;;;17.85;6.88;;;;;;;8.74;95.23;103033.28;4968741;28;97208;-34
2021/12/15 02:40:10;;;;;;;24.17;9.07;;;;;;;8.76;95.40;103042.25;4971811;28;106829;-34
2021/12/15 02:42:39;;;;;;;22.40;9.65;;;;;;;8.74;95.25;103035.09;4970970;28;96618;-34
2021/12/15 02:45:09;;;;;;;20.08;8.50;;;;;;;8.74;95.23;103030.59;4970755;28;96693;-34
2021/12/15 02:47:35;;;;;;;21.83;9.00;;;;;;;8.73;95.39;103033.34;4972423;28;97488;-34
2021/12/15 02:50:05;;;;;;;21.85;9.35;;;;;;;8.73;95.43;103030.63;4970580;28;100882;-34
2021/12/15 02:52:31;;;;;;;23.05;8.85;;;;;;;8.73;95.49;103033.34;4970942;28;96683;-34
2021/12/15 02:54:56;;;;;;;22.02;8.75;;;;;;;8.77;95.50;103032.34;4972287;28;96863;-34
2021/12/15 02:57:21;;;;;;;17.52;7.05;;;;;;;8.69;95.43;103025.28;4971418;28;118081;-34
2021/12/15 03:00:04;;;;;;;22.27;9.05;;;;;;;8.74;95.28;103029.72;4972357;28;97803;-34
2021/12/15 03:05:29;;;;;;;22.95;8.43;;;;;;;8.77;95.40;103035.03;4975333;28;97060;-34
2021/12/15 03:08:13;;;;;;;18.75;8.30;;;;;;;8.78;95.46;103035.03;4973959;28;101178;-34
2021/12/15 03:16:11;;;;;;;22.02;8.15;;;;;;;8.76;95.33;103031.47;4975619;28;96594;-34
2021/12/15 03:18:37;;;;;;;23.08;9.43;;;;;;;8.74;95.32;103025.19;4973647;28;100906;-34
2021/12/15 03:21:24;;;;;;;19.08;8.60;;;;;;;8.77;95.54;103035.97;4975604;28;97995;-34
2021/12/15 03:23:54;;;;;;;22.70;7.57;;;;;;;8.80;95.19;103044.00;4975391;28;96564;-34
2021/12/15 03:26:40;;;;;;;16.15;7.88;;;;;;;8.81;95.39;103047.59;4973960;28;96829;-34
2021/12/15 03:34:42;;;;;;;19.10;8.23;;;;;;;8.77;95.47;103037.75;4972873;28;96879;-34
2021/12/15 03:39:50;;;;;;;16.25;7.60;;;;;;;8.76;95.31;103034.16;4974046;28;97417;-34
2021/12/15 03:42:25;;;;;;;18.20;8.25;;;;;;;8.82;95.39;103035.84;4973300;28;100974;-34
2021/12/15 03:44:51;;;;;;;19.55;8.35;;;;;;;8.76;95.36;103031.47;4973455;28;96575;-34
2021/12/15 03:47:27;;;;;;;18.85;7.20;;;;;;;8.81;95.46;103043.06;4975277;28;96792;-34
2021/12/15 03:49:53;;;;;;;20.25;8.30;;;;;;;8.71;95.47;103026.13;4973706;28;100938;-34
2021/12/15 03:52:19;;;;;;;22.95;7.53;;;;;;;8.81;95.60;103042.19;4974568;28;97342;-34
2021/12/15 03:54:45;;;;;;;28.83;8.07;;;;;;;8.79;95.25;103038.63;4972532;28;97085;-34
2021/12/15 03:57:12;;;;;;;24.60;9.63;;;;;;;8.77;95.45;103033.25;4974539;28;96830;-34
2021/12/15 03:59:42;;;;;;;25.08;8.70;;;;;;;8.79;95.33;103042.19;4973189;28;100854;-34
2021/12/15 04:02:08;;;;;;;17.67;8.23;;;;;;;8.82;95.34;103044.88;4974709;28;97737;-34
2021/12/15 04:04:34;;;;;;;21.77;9.25;;;;;;;8.82;95.42;103046.66;4973185;28;96628;-34
2021/12/15 04:06:59;;;;;;;21.83;8.85;;;;;;;8.83;95.48;103048.44;4973126;28;96859;-34
2021/12/15 04:09:24;;;;;;;17.35;7.95;;;;;;;8.78;95.37;103048.53;4974556;28;97932;-34
2021/12/15 04:11:52;;;;;;;21.98;9.25;;;;;;;8.75;95.35;103045.91;4972968;28;98986;-34
2021/12/15 04:14:21;;;;;;;20.20;6.95;;;;;;;8.80;95.39;103057.50;4972965;28;96566;-34
2021/12/15 04:17:00;;;;;;;17.23;8.10;;;;;;;8.84;95.49;103059.25;4973057;28;96904;-34
2021/12/15 04:19:26;;;;;;;22.42;9.25;;;;;;;8.80;95.22;103057.50;4973911;28;98024;-34
2021/12/15 04:21:51;;;;;;;25.40;9.02;;;;;;;8.82;95.25;103058.38;4974204;28;97766;-34
2021/12/15 04:24:18;;;;;;;21.45;8.27;;;;;;;8.82;95.39;103057.47;4972665;28;96673;-34
2021/12/15 04:26:45;;;;;;;28.48;9.70;;;;;;;8.81;95.37;103053.00;4972780;28;96794;-34
2021/12/15 04:29:11;;;;;;;20.27;8.38;;;;;;;8.83;95.37;103054.75;4972599;28;100840;-34
2021/12/15 04:31:44;;;;;;;16.08;6.75;;;;;;;8.85;95.35;103050.19;4972625;28;100763;-34
2021/12/15 04:34:12;;;;;;;24.42;9.32;;;;;;;8.85;95.33;103058.31;4972648;28;96532;-34
2021/12/15 04:36:41;;;;;;;16.77;7.38;;;;;;;8.81;95.31;103056.56;4973919;28;96748;-34
2021/12/15 04:39:11;;;;;;;22.30;9.30;;;;;;;8.83;95.23;103052.03;4972365;28;100880;-34
2021/12/15 04:41:36;;;;;;;27.23;8.68;;;;;;;8.86;95.29;103059.19;4972341;28;100664;-34
2021/12/15 04:44:09;;;;;;;16.75;7.60;;;;;;;8.86;95.41;103060.09;4972050;28;96848;-34
2021/12/15 04:46:37;;;;;;;20.05;7.65;;;;;;;8.87;95.27;103067.28;4973983;28;96586;-34
2021/12/15 04:49:06;;;;;;;23.48;9.55;;;;;;;8.86;95.23;103064.59;4972223;28;100901;-34
2021/12/15 04:51:31;;;;;;;25.60;9.05;;;;;;;8.90;95.29;103069.03;4972319;28;100768;-34
2021/12/15 04:53:58;;;;;;;25.63;8.77;;;;;;;8.91;95.38;103076.22;4973750;28;96477;-34
2021/12/15 04:56:25;;;;;;;22.98;9.13;;;;;;;8.89;95.49;103068.16;4972246;28;96801;-34
2021/12/15 04:58:52;;;;;;;19.30;7.90;;;;;;;8.89;95.41;103068.16;4973529;28;97948;-34
2021/12/15 05:01:18;;;;;;;22.48;9.35;;;;;;;8.86;95.27;103060.09;4972333;28;101247;-34
2021/12/15 05:03:45;;;;;;;27.23;9.10;;;;;;;8.84;95.33;103053.84;4973533;28;96599;-34
2021/12/15 05:06:11;;;;;;;27.85;9.20;;;;;;;8.90;95.41;103072.63;4971875;28;96844;-34
2021/12/15 05:08:37;;;;;;;23.17;9.43;;;;;;;8.90;95.38;103066.34;4973079;28;97450;-34
2021/12/15 05:11:05;;;;;;;23.48;8.65;;;;;;;8.89;95.16;103072.63;4971895;28;100810;-34
2021/12/15 05:13:30;;;;;;;26.15;8.50;;;;;;;8.91;95.55;103066.31;4972082;28;96674;-34
2021/12/15 05:15:56;;;;;;;22.02;8.85;;;;;;;8.91;95.38;103070.81;4973462;28;96829;-34
2021/12/15 05:18:22;;;;;;;26.13;9.65;;;;;;;8.88;95.33;103065.47;4973336;28;98350;-34
2021/12/15 05:20:51;;;;;;;26.13;9.55;;;;;;;8.89;95.63;103065.44;4971858;28;101039;-34
2021/12/15 05:23:17;;;;;;;19.35;8.15;;;;;;;8.89;95.38;103065.44;4971156;28;96654;-34
2021/12/15 05:25:44;;;;;;;19.98;7.03;;;;;;;8.93;95.56;103074.38;4973788;28;96538;-34
2021/12/15 05:28:09;;;;;;;24.40;9.30;;;;;;;8.92;95.55;103067.19;4971779;28;101039;-34
2021/12/15 05:30:35;;;;;;;21.10;8.88;;;;;;;8.91;95.51;103070.81;4973144;28;97398;-34
2021/12/15 05:33:01;;;;;;;21.63;7.40;;;;;;;8.93;95.54;103082.47;4971286;28;96764;-34
2021/12/15 05:35:26;;;;;;;19.65;9.25;;;;;;;8.92;95.57;103073.50;4972831;28;96885;-34
2021/12/15 05:37:55;;;;;;;27.20;10.13;;;;;;;8.92;95.43;103076.19;4973246;28;97271;-34
2021/12/15 05:40:22;;;;;;;20.73;8.02;;;;;;;8.93;95.48;103079.78;4971481;28;100903;-34
2021/12/15 05:42:48;;;;;;;18.35;8.38;;;;;;;8.89;95.37;103069.94;4971758;28;96596;-34
2021/12/15 05:45:13;;;;;;;25.15;8.68;;;;;;;8.97;95.50;103081.50;4973154;28;96740;-34
2021/12/15 05:47:39;;;;;;;24.05;7.47;;;;;;;8.98;95.05;103087.81;4972523;28;99642;-34
2021/12/15 05:50:08;;;;;;;21.02;7.57;;;;;;;8.97;95.61;103083.34;4973042;28;98720;-34
2021/12/15 05:52:33;;;;;;;21.13;7.50;;;;;;;8.90;95.35;103067.22;4972730;28;96565;-34
2021/12/15 05:54:59;;;;;;;25.42;7.80;;;;;;;8.96;95.47;103078.84;4972725;28;96906;-34
2021/12/15 05:57:25;;;;;;;25.23;8.52;;;;;;;8.95;95.55;103072.53;4972008;28;99129;-34
2021/12/15 05:59:50;;;;;;;23.77;8.95;;;;;;;8.99;95.72;103079.69;4972808;28;97312;-34
2021/12/15 06:02:16;;;;;;;24.48;8.55;;;;;;;8.97;95.69;103075.22;4972795;28;96620;-34
2021/12/15 06:04:41;;;;;;;23.40;8.07;;;;;;;9.00;95.64;103075.16;4972901;28;96704;-34
2021/12/15 06:07:07;;;;;;;22.92;7.75;;;;;;;9.01;95.63;103090.44;4972348;28;98077;-34
2021/12/15 06:09:33;;;;;;;19.30;7.25;;;;;;;8.96;95.58;103079.72;4972852;28;97371;-34
2021/12/15 06:11:59;;;;;;;31.75;9.55;;;;;;;8.96;95.31;103086.94;4971465;28;96858;-34
2021/12/15 06:14:27;;;;;;;27.70;9.77;;;;;;;9.00;95.54;103085.97;4971541;28;96875;-34
2021/12/15 06:16:59;;;;;;;24.80;9.95;;;;;;;9.03;95.57;103094.91;4971181;28;100801;-34
2021/12/15 06:19:24;;;;;;;;;;;;;;;9.04;95.73;103095.81;4971467;28;100782;-34
2021/12/15 06:21:50;;;;;;;23.90;8.15;;;;;;;9.01;95.64;103095.84;4971969;28;96594;-34
2021/12/15 06:24:15;;;;;;;22.45;7.82;;;;;;;8.98;95.67;103093.22;4971430;28;96732;-34
2021/12/15 06:26:41;;;;;;;28.30;9.82;;;;;;;9.00;95.50;103094.09;4971248;28;97308;-34
2021/12/15 06:29:06;;;;;;;29.67;9.35;;;;;;;9.03;95.47;103102.13;4970176;28;100445;-34
2021/12/15 06:31:32;;;;;;;25.38;8.45;;;;;;;8.96;95.58;103086.94;4971705;28;98439;-34
2021/12/15 06:33:57;;;;;;;21.95;8.30;;;;;;;8.99;95.64;103095.00;4971949;28;96765;-34
2021/12/15 06:36:23;;;;;;;26.65;9.55;;;;;;;8.93;95.67;103087.88;4971236;28;100019;-34
2021/12/15 06:38:52;;;;;;;25.17;10.52;;;;;;;8.95;95.66;103093.28;4972109;28;99159;-34
2021/12/15 06:41:18;;;;;;;22.15;8.73;;;;;;;8.99;95.96;103103.13;4970781;28;98287;-34
2021/12/15 06:43:48;;;;;;;28.50;10.07;;;;;;;8.93;95.67;103105.00;4970801;28;96973;-34
2021/12/15 06:57:32;;;;;;;26.75;10.65;;;;;;;8.99;95.59;103112.13;4972388;28;97134;-34
2021/12/15 06:59:58;;;;;;;23.92;8.68;;;;;;;9.00;95.72;103113.88;4971814;28;98318;-34
2021/12/15 07:02:24;;;;;;;23.30;9.68;;;;;;;9.00;95.70;103119.28;4970659;28;96681;-34
2021/12/15 07:04:50;;;;;;;19.73;8.32;;;;;;;8.97;95.62;103122.06;4970677;28;96621;-34
2021/12/15 07:07:15;;;;;;;25.23;9.00;;;;;;;9.00;95.63;103127.41;4970521;28;101004;-34
2021/12/15 07:09:41;;;;;;;28.38;8.85;;;;;;;9.00;95.54;103123.81;4971607;28;101195;-34
2021/12/15 07:12:07;;;;;;;27.33;10.02;;;;;;;8.99;95.69;103122.94;4971683;28;96427;-34
2021/12/15 07:14:33;;;;;;;23.40;9.25;;;;;;;9.00;95.71;103130.09;4970451;28;98492;-34
2021/12/15 07:16:59;;;;;;;27.55;9.45;;;;;;;9.00;95.55;103129.22;4971720;28;98103;-34
2021/12/15 07:22:08;;;;;;;28.63;9.52;;;;;;;9.04;95.60;103137.25;4971758;28;96572;-34
2021/12/15 07:24:36;;;;;;;23.10;8.38;;;;;;;9.02;95.75;103127.38;4970587;28;96717;-34
2021/12/15 07:27:03;;;;;;;24.77;8.82;;;;;;;9.04;95.61;103136.38;4970230;28;103450;-34
2021/12/15 07:29:30;;;;;;;25.45;10.55;;;;;;;9.04;95.68;103134.53;4970524;28;100876;-34
2021/12/15 07:31:56;;;;;;;38.47;11.13;;;;;;;9.01;95.59;103131.91;4971935;28;96515;-34
2021/12/15 07:34:21;;;;;;;20.40;7.85;;;;;;;9.05;95.92;103143.53;4970213;28;96847;-34
2021/12/15 07:36:47;;;;;;;22.02;7.70;;;;;;;9.02;95.69;103139.09;4970855;28;97951;-34
2021/12/15 07:39:14;;;;;;;24.88;8.57;;;;;;;9.04;95.80;103139.06;4971935;28;97396;-34
2021/12/15 07:41:52;;;;;;;22.27;9.85;;;;;;;9.08;96.01;103140.78;4971485;28;96604;-34
2021/12/15 07:44:22;;;;;;;29.70;8.75;;;;;;;9.09;95.77;103148.88;4970057;28;96664;-34
2021/12/15 07:46:51;;;;;;;31.67;8.15;;;;;;;9.10;95.85;103153.34;4971794;28;101001;-34
2021/12/15 07:49:33;;;;;;;27.15;7.65;;;;;;;9.06;95.74;103143.53;4973358;28;100921;-34
2021/12/15 07:52:01;;;;;;;31.98;9.18;;;;;;;9.06;95.67;103140.81;4973422;28;96597;-34
2021/12/15 07:54:32;;;;;;;32.92;9.20;;;;;;;9.08;95.63;103147.09;4973343;28;96794;-34
2021/12/15 07:56:59;;;;;;;27.33;9.15;;;;;;;9.10;95.90;103147.94;4973144;28;101338;-34
2021/12/15 07:59:25;;;;;;;22.67;8.85;;;;;;;9.08;95.60;103143.47;4973152;28;100742;-34
2021/12/15 08:01:51;;;;;;;20.77;7.63;;;;;;;9.12;95.69;103145.22;4973961;28;96529;-34
2021/12/15 08:04:18;;;;;;;24.33;8.00;;;;;;;9.12;95.62;103151.50;4974668;28;96713;-34
2021/12/15 08:06:45;;;;;;;28.65;8.18;;;;;;;9.12;95.77;103153.31;4974032;28;97442;-34
2021/12/15 08:09:11;;;;;;;20.80;7.15;;;;;;;9.10;95.64;103147.94;4974347;28;97943;-34
2021/12/15 08:11:36;;;;;;;22.35;8.02;;;;;;;9.10;95.76;103144.34;4973242;28;96696;-34
2021/12/15 08:14:02;;;;;;;20.40;6.95;;;;;;;9.10;95.79;103144.34;4974626;28;96817;-34
2021/12/15 08:16:27;;;;;;;22.15;7.43;;;;;;;9.16;95.97;103157.75;4974302;28;97819;-34
2021/12/15 08:18:52;;;;;;;28.17;9.50;;;;;;;9.08;95.86;103133.59;4973629;28;126111;-34
2021/12/15 08:21:18;;;;;;;19.58;7.78;;;;;;;9.11;95.82;103146.16;4973272;28;124473;-34
2021/12/15 08:23:43;;;;;;;15.70;6.50;;;;;;;9.18;95.75;103158.63;4974127;28;96483;-34
2021/12/15 08:26:09;;;;;;;22.10;7.75;;;;;;;9.19;95.54;103163.09;4973675;28;97415;-34
2021/12/15 08:28:35;;;;;;;27.13;10.18;;;;;;;9.14;95.59;103151.50;4974151;28;98025;-34
2021/12/15 08:31:02;;;;;;;22.40;9.10;;;;;;;9.21;95.51;103163.09;4972841;28;96524;-34
2021/12/15 08:33:28;;;;;;;18.70;7.60;;;;;;;9.21;95.60;103160.38;4972762;28;96736;-34
2021/12/15 08:36:03;;;;;;;27.63;10.57;;;;;;;9.21;95.43;103161.28;4973625;28;98101;-34
2021/12/15 08:38:32;;;;;;;23.95;8.18;;;;;;;9.19;95.47;103154.09;4972427;28;101685;-34
2021/12/15 08:40:59;;;;;;;24.52;8.35;;;;;;;9.22;95.56;103165.75;4972610;28;96463;-34
2021/12/15 08:43:25;;;;;;;28.63;8.38;;;;;;;9.22;95.61;103164.84;4974435;28;96754;-34
2021/12/15 08:45:58;;;;;;;21.67;8.20;;;;;;;9.21;95.68;103165.78;4972400;28;100961;-34
2021/12/15 08:48:23;;;;;;;22.33;8.13;;;;;;;9.23;95.54;103167.53;4972384;28;101360;-34
2021/12/15 08:50:49;;;;;;;35.70;9.15;;;;;;;9.24;95.45;103171.13;4973206;28;96524;-34
2021/12/15 08:53:16;;;;;;;20.30;7.80;;;;;;;9.27;95.49;103172.00;4972319;28;97292;-34
2021/12/15 08:55:45;;;;;;;27.10;8.07;;;;;;;9.29;95.46;103175.53;4971893;28;101129;-34
2021/12/15 08:58:12;;;;;;;28.25;9.15;;;;;;;9.26;95.36;103163.88;4971059;28;101166;-34
2021/12/15 09:00:40;;;;;;;18.30;7.07;;;;;;;9.25;95.72;103165.72;4972384;28;96796;-34
2021/12/15 09:03:06;;;;;;;18.95;7.32;;;;;;;9.30;95.63;103182.75;4972561;28;96763;-34
2021/12/15 09:05:32;;;;;;;23.33;8.43;;;;;;;9.26;95.41;103182.81;4972889;28;98048;-34
2021/12/15 09:07:59;;;;;;;23.67;7.07;;;;;;;9.31;95.42;103186.31;4973724;28;99028;-34
2021/12/15 09:10:27;;;;;;;20.65;7.07;;;;;;;9.33;95.42;103190.78;4972186;28;96594;-34
2021/12/15 09:12:53;;;;;;;14.68;6.70;;;;;;;9.35;95.41;103193.47;4972140;28;96914;-34
2021/12/15 09:15:19;;;;;;;21.05;7.70;;;;;;;9.30;95.43;103188.16;4971418;28;102498;-34
2021/12/15 09:17:44;;;;;;;21.05;7.65;;;;;;;9.38;95.29;103197.94;4973327;28;98038;-34
2021/12/15 09:20:15;;;;;;;16.98;6.68;;;;;;;9.39;95.34;103199.69;4972275;28;96535;-34
2021/12/15 09:22:40;;;;;;;21.60;7.07;;;;;;;9.38;95.28;103198.81;4971993;28;96715;-34
2021/12/15 09:25:10;;;;;;;19.20;7.38;;;;;;;9.33;95.12;103193.50;4973082;28;99252;-34
2021/12/15 09:27:36;;;;;;;17.33;6.35;;;;;;;9.40;95.31;103198.81;4971797;28;100804;-34
2021/12/15 09:30:04;;;;;;;22.90;8.23;;;;;;;9.41;95.12;103200.56;4971851;28;96574;-34
2021/12/15 09:32:29;;;;;;;19.88;6.10;;;;;;;9.44;95.31;103208.63;4971891;28;96852;-34
2021/12/15 09:34:55;;;;;;;19.40;7.03;;;;;;;9.44;95.26;103205.91;4972754;28;97931;-34
2021/12/15 09:37:20;;;;;;;28.90;9.95;;;;;;;9.39;95.09;103202.41;4973116;28;97770;-34
2021/12/15 09:39:47;;;;;;;17.70;6.82;;;;;;;9.39;95.18;103203.31;4972685;28;96549;-34
2021/12/15 09:42:18;;;;;;;19.65;7.68;;;;;;;9.40;95.06;103204.22;4973573;28;96797;-34
2021/12/15 09:44:44;;;;;;;16.95;5.65;;;;;;;9.41;95.22;103208.69;4971448;28;100823;-34
2021/12/15 09:47:22;;;;;;;14.90;6.82;;;;;;;9.47;95.18;103217.59;4971171;28;100796;-34
2021/12/15 10:03:36;;;;;;;13.90;6.15;;;;;;;9.50;95.15;103230.16;4973192;28;96482;-34
2021/12/15 10:19:52;;;;;;;19.10;6.28;;;;;;;9.49;95.14;103231.97;4972950;28;97017;-34
2021/12/15 10:22:43;;;;;;;16.30;6.50;;;;;;;9.54;95.05;103238.19;4972514;28;96603;-34
2021/12/15 10:25:12;;;;;;;17.42;6.38;;;;;;;9.57;94.84;103229.13;4971580;28;96873;-34
2021/12/15 10:27:43;;;;;;;13.98;5.70;;;;;;;9.60;94.71;103229.06;4971023;28;101301;-34
2021/12/15 10:30:25;;;;;;;16.55;5.80;;;;;;;9.62;94.65;103243.44;4971042;28;101116;-34
2021/12/15 10:33:09;;;;;;;14.52;6.43;;;;;;;9.65;94.68;103239.78;4971761;28;96760;-34
2021/12/15 10:35:46;;;;;;;13.00;5.72;;;;;;;9.59;94.32;103232.69;4970908;28;96897;-34
2021/12/15 10:38:18;;;;;;;16.73;5.68;;;;;;;9.66;94.26;103249.72;4970967;28;100455;-34
2021/12/15 10:40:47;;;;;;;13.52;5.00;;;;;;;9.67;94.05;103244.25;4970965;28;100795;-34
2021/12/15 10:43:13;;;;;;;13.13;5.68;;;;;;;9.64;94.10;103229.91;4972069;28;96581;-34
2021/12/15 10:45:42;;;;;;;13.18;5.93;;;;;;;9.67;93.96;103235.25;4970898;28;96892;-34
2021/12/15 10:48:22;;;;;;;13.25;5.18;;;;;;;9.72;94.06;103246.88;4971992;28;97541;-34
2021/12/15 10:50:49;;;;;;;9.30;4.60;;;;;;;9.73;93.90;103243.25;4971026;28;99283;-34
2021/12/15 10:53:29;;;;;;;16.00;5.35;;;;;;;9.75;94.11;103252.25;4970720;28;96645;-34
2021/12/15 10:55:54;;;;;;;14.70;5.28;;;;;;;9.75;93.70;103245.00;4970266;28;96870;-34
2021/12/15 10:58:35;;;;;;;12.10;5.00;;;;;;;9.70;94.00;103227.06;4971647;28;97959;-34
2021/12/15 11:01:05;;;;;;;18.83;6.30;;;;;;;9.79;93.98;103243.13;4970611;28;101160;-34
2021/12/15 11:03:33;;;;;;;17.98;5.90;;;;;;;9.75;93.98;103228.78;4970745;28;96640;-34
2021/12/15 11:05:59;;;;;;;12.27;5.38;;;;;;;9.77;93.62;103243.16;4970110;28;96940;-34
2021/12/15 11:08:24;;;;;;;16.73;5.80;;;;;;;9.82;93.88;103247.56;4972280;28;97347;-34
2021/12/15 11:10:52;;;;;;;15.43;6.03;;;;;;;9.80;93.83;103244.94;4971998;28;97810;-34
2021/12/15 11:13:17;;;;;;;15.82;5.57;;;;;;;9.76;93.61;103237.78;4972047;28;96557;-34
2021/12/15 11:15:49;;;;;;;9.65;5.47;;;;;;;9.77;93.76;103235.06;4972408;28;98214;-34
2021/12/15 11:18:21;;;;;;;14.57;6.60;;;;;;;9.80;93.68;103231.41;4971865;28;97352;-34
2021/12/15 11:20:51;;;;;;;12.98;6.55;;;;;;;9.86;93.56;103243.91;4970641;28;101219;-34
2021/12/15 11:23:19;;;;;;;14.32;5.50;;;;;;;9.84;93.39;103238.50;4973537;28;97177;-34
2021/12/15 11:25:51;;;;;;;16.20;5.90;;;;;;;9.84;93.34;103238.50;4973795;28;98155;-34
2021/12/15 11:28:29;;;;;;;17.42;5.68;;;;;;;9.86;93.05;103246.59;4975079;28;98103;-34
2021/12/15 11:31:02;;;;;;;12.57;5.20;;;;;;;9.89;93.08;103243.81;4973623;28;103022;-34
2021/12/15 11:33:32;;;;;;;14.05;5.10;;;;;;;9.87;93.11;103241.16;4973738;28;96715;-34
2021/12/15 11:36:07;;;;;;;18.33;6.95;;;;;;;9.90;93.42;103245.63;4973854;28;116806;-34
2021/12/15 11:38:52;;;;;;;16.02;7.57;;;;;;;9.89;93.30;103242.03;4974976;28;97950;-34
2021/12/15 11:41:39;;;;;;;16.08;6.70;;;;;;;9.89;93.03;103241.13;4973863;28;102924;-34
2021/12/15 11:44:04;;;;;;;25.65;8.77;;;;;;;9.90;92.72;103242.91;4973768;28;96661;-34
2021/12/15 11:46:46;;;;;;;19.03;7.37;;;;;;;9.88;92.91;103236.66;4974738;28;99461;-34
2021/12/15 11:49:34;;;;;;;14.00;5.75;;;;;;;9.90;92.95;103245.63;4972888;28;100867;-34
2021/12/15 11:52:04;;;;;;;12.52;5.35;;;;;;;9.85;92.95;103237.59;4974537;28;99191;-34
2021/12/15 11:54:36;;;;;;;17.85;5.28;;;;;;;9.87;92.89;103226.75;4973105;28;97780;-34
2021/12/15 11:57:21;;;;;;;11.60;4.97;;;;;;;9.84;92.84;103232.22;4973391;28;96837;-34
2021/12/15 11:59:50;;;;;;;13.43;5.07;;;;;;;9.89;92.93;103236.63;4974751;28;98024;-34
2021/12/15 12:02:27;;;;;;;14.43;5.68;;;;;;;9.88;93.15;103236.66;4974459;28;97902;-34
2021/12/15 12:04:59;;;;;;;21.08;5.82;;;;;;;9.90;93.05;103232.09;4974007;28;96476;-34
2021/12/15 12:07:29;;;;;;;10.02;5.05;;;;;;;9.85;92.68;103226.78;4973788;28;96674;-34
2021/12/15 12:10:03;;;;;;;15.50;5.85;;;;;;;9.92;92.96;103241.09;4972967;28;101019;-34
2021/12/15 12:12:36;;;;;;;8.27;5.07;;;;;;;9.94;92.79;103244.66;4974336;28;97866;-34
2021/12/15 12:15:04;;;;;;;15.07;5.07;;;;;;;9.93;92.84;103243.75;4972422;28;97129;-34
2021/12/15 12:17:34;;;;;;;12.52;5.28;;;;;;;9.89;92.61;103227.59;4973114;28;97415;-34
2021/12/15 12:20:09;;;;;;;14.10;5.35;;;;;;;9.96;92.51;103242.78;4972888;28;100973;-34
2021/12/15 12:22:36;;;;;;;10.65;5.53;;;;;;;9.89;92.32;103223.09;4974244;28;99311;-34
2021/12/15 12:25:08;;;;;;;14.85;6.28;;;;;;;9.95;92.75;103227.47;4972808;28;96527;-34
2021/12/15 12:27:35;;;;;;;10.48;5.00;;;;;;;9.92;92.53;103214.00;4974386;28;97325;-34
2021/12/15 12:30:05;;;;;;;19.70;6.05;;;;;;;9.91;92.79;103218.50;4972650;28;100824;-34
2021/12/15 12:32:31;;;;;;;12.18;4.80;;;;;;;9.90;92.68;103215.84;4972753;28;102749;-34
2021/12/15 12:34:58;;;;;;;12.57;5.40;;;;;;;9.92;92.61;103220.31;4973513;28;96617;-34
2021/12/15 12:37:24;;;;;;;9.32;4.55;;;;;;;9.90;92.85;103213.16;4972772;28;96773;-34
2021/12/15 12:39:56;;;;;;;11.43;5.53;;;;;;;9.93;92.77;103226.59;4973520;28;98001;-34
2021/12/15 12:42:39;;;;;;;12.50;4.63;;;;;;;9.95;92.57;103219.34;4972481;28;100878;-34